sensor_id;sensor_type;location;lat;lon;timestamp;P1;durP1;ratioP1;P2;durP2;ratioP2
20000;SDS011;10161;41.188;-8.642;2022-08-01T00:04:18;10.50;;;6.90;;
20000;SDS011;10161;41.188;-8.642;2022-08-01T00:06:45;9.73;;;6.30;;
20000;SDS011;10161;41.188;-8.642;2022-08-01T00:09:12;11.07;;;7.47;;
20000;SDS011;10161;41.188;-8.642;2022-08-01T00:11:39;10.37;;;6.50;;
20000;SDS011;10161;41.188;-8.642;2022-08-01T00:14:07;8.77;;;6.23;;
20000;SDS011;10161;41.188;-8.642;2022-08-01T00:16:51;8.73;;;6.77;;
20000;SDS011;10161;41.188;-8.642;2022-08-01T00:19:29;6.60;;;6.00;;
20000;SDS011;10161;41.188;-8.642;2022-08-01T00:21:57;8.77;;;6.87;;
20000;SDS011;10161;41.188;-8.642;2022-08-01T00:24:24;7.90;;;6.30;;
20000;SDS011;10161;41.188;-8.642;2022-08-01T00:26:51;7.37;;;6.47;;
20000;SDS011;10161;41.188;-8.642;2022-08-01T00:29:25;9.30;;;7.20;;
20000;SDS011;10161;41.188;-8.642;2022-08-01T00:31:52;8.30;;;7.43;;
20000;SDS011;10161;41.188;-8.642;2022-08-01T00:34:19;8.03;;;7.27;;
20000;SDS011;10161;41.188;-8.642;2022-08-01T00:36:47;9.63;;;7.73;;
20000;SDS011;10161;41.188;-8.642;2022-08-01T00:39:14;8.80;;;7.90;;
20000;SDS011;10161;41.188;-8.642;2022-08-01T00:41:41;9.13;;;7.90;;
20000;SDS011;10161;41.188;-8.642;2022-08-01T00:44:08;10.10;;;9.13;;
20000;SDS011;10161;41.188;-8.642;2022-08-01T00:46:35;9.93;;;8.97;;
20000;SDS011;10161;41.188;-8.642;2022-08-01T00:49:02;13.63;;;9.73;;
20000;SDS011;10161;41.188;-8.642;2022-08-01T00:51:30;10.30;;;9.30;;
20000;SDS011;10161;41.188;-8.642;2022-08-01T00:53:58;9.97;;;9.00;;
20000;SDS011;10161;41.188;-8.642;2022-08-01T00:56:26;10.30;;;9.30;;
20000;SDS011;10161;41.188;-8.642;2022-08-01T00:58:53;11.13;;;9.67;;
20000;SDS011;10161;41.188;-8.642;2022-08-01T01:01:21;10.00;;;9.10;;
20000;SDS011;10161;41.188;-8.642;2022-08-01T01:03:49;10.47;;;9.30;;
20000;SDS011;10161;41.188;-8.642;2022-08-01T01:06:23;10.20;;;9.10;;
20000;SDS011;10161;41.188;-8.642;2022-08-01T01:08:55;9.93;;;8.73;;
20000;SDS011;10161;41.188;-8.642;2022-08-01T01:11:31;9.33;;;8.43;;
20000;SDS011;10161;41.188;-8.642;2022-08-01T01:14:08;9.37;;;8.43;;
20000;SDS011;10161;41.188;-8.642;2022-08-01T01:16:37;12.10;;;9.00;;
20000;SDS011;10161;41.188;-8.642;2022-08-01T01:19:08;9.30;;;8.47;;
20000;SDS011;10161;41.188;-8.642;2022-08-01T01:21:55;9.43;;;8.20;;
20000;SDS011;10161;41.188;-8.642;2022-08-01T01:24:32;12.67;;;9.53;;
20000;SDS011;10161;41.188;-8.642;2022-08-01T01:27:06;12.50;;;9.60;;
20000;SDS011;10161;41.188;-8.642;2022-08-01T01:29:46;10.20;;;9.10;;
20000;SDS011;10161;41.188;-8.642;2022-08-01T01:35:06;9.57;;;8.63;;
20000;SDS011;10161;41.188;-8.642;2022-08-01T01:37:35;10.70;;;9.80;;
20000;SDS011;10161;41.188;-8.642;2022-08-01T01:40:05;9.60;;;8.70;;
20000;SDS011;10161;41.188;-8.642;2022-08-01T01:42:34;9.87;;;8.97;;
20000;SDS011;10161;41.188;-8.642;2022-08-01T01:45:03;10.57;;;9.47;;
20000;SDS011;10161;41.188;-8.642;2022-08-01T01:47:31;12.23;;;9.93;;
20000;SDS011;10161;41.188;-8.642;2022-08-01T01:49:58;10.07;;;9.10;;
20000;SDS011;10161;41.188;-8.642;2022-08-01T01:52:27;10.27;;;9.27;;
20000;SDS011;10161;41.188;-8.642;2022-08-01T01:54:54;14.03;;;9.90;;
20000;SDS011;10161;41.188;-8.642;2022-08-01T01:57:22;11.47;;;10.23;;
20000;SDS011;10161;41.188;-8.642;2022-08-01T01:59:50;12.87;;;10.37;;
20000;SDS011;10161;41.188;-8.642;2022-08-01T02:02:19;12.50;;;10.50;;
20000;SDS011;10161;41.188;-8.642;2022-08-01T02:04:48;12.13;;;9.70;;
20000;SDS011;10161;41.188;-8.642;2022-08-01T02:07:34;11.20;;;10.10;;
20000;SDS011;10161;41.188;-8.642;2022-08-01T02:10:02;10.17;;;9.13;;
20000;SDS011;10161;41.188;-8.642;2022-08-01T02:12:30;9.97;;;8.97;;
20000;SDS011;10161;41.188;-8.642;2022-08-01T02:15:18;10.30;;;9.20;;
20000;SDS011;10161;41.188;-8.642;2022-08-01T02:17:48;13.00;;;9.90;;
20000;SDS011;10161;41.188;-8.642;2022-08-01T02:20:16;10.20;;;9.20;;
20000;SDS011;10161;41.188;-8.642;2022-08-01T02:26:07;14.20;;;9.63;;
20000;SDS011;10161;41.188;-8.642;2022-08-01T02:28:38;11.50;;;8.87;;
20000;SDS011;10161;41.188;-8.642;2022-08-01T02:31:11;10.20;;;9.10;;
20000;SDS011;10161;41.188;-8.642;2022-08-01T02:33:43;9.10;;;8.20;;
20000;SDS011;10161;41.188;-8.642;2022-08-01T02:36:10;8.30;;;7.50;;
20000;SDS011;10161;41.188;-8.642;2022-08-01T02:38:40;10.00;;;8.20;;
20000;SDS011;10161;41.188;-8.642;2022-08-01T02:41:08;8.53;;;7.83;;
20000;SDS011;10161;41.188;-8.642;2022-08-01T02:43:38;8.30;;;7.53;;
20000;SDS011;10161;41.188;-8.642;2022-08-01T02:46:09;8.60;;;7.70;;
20000;SDS011;10161;41.188;-8.642;2022-08-01T02:48:39;7.87;;;7.07;;
20000;SDS011;10161;41.188;-8.642;2022-08-01T02:51:09;8.73;;;7.23;;
20000;SDS011;10161;41.188;-8.642;2022-08-01T02:53:37;9.20;;;8.30;;
20000;SDS011;10161;41.188;-8.642;2022-08-01T02:56:07;8.60;;;7.90;;
20000;SDS011;10161;41.188;-8.642;2022-08-01T02:58:34;7.67;;;6.97;;
20000;SDS011;10161;41.188;-8.642;2022-08-01T03:01:02;10.60;;;8.00;;
20000;SDS011;10161;41.188;-8.642;2022-08-01T03:03:29;7.43;;;6.83;;
20000;SDS011;10161;41.188;-8.642;2022-08-01T03:05:58;8.30;;;7.50;;
20000;SDS011;10161;41.188;-8.642;2022-08-01T03:08:29;10.00;;;7.70;;
20000;SDS011;10161;41.188;-8.642;2022-08-01T03:10:56;8.67;;;7.87;;
20000;SDS011;10161;41.188;-8.642;2022-08-01T03:13:24;8.50;;;7.80;;
20000;SDS011;10161;41.188;-8.642;2022-08-01T03:19:14;8.70;;;7.70;;
20000;SDS011;10161;41.188;-8.642;2022-08-01T03:21:43;9.00;;;8.10;;
20000;SDS011;10161;41.188;-8.642;2022-08-01T03:24:11;9.63;;;7.60;;
20000;SDS011;10161;41.188;-8.642;2022-08-01T03:26:38;9.13;;;8.23;;
20000;SDS011;10161;41.188;-8.642;2022-08-01T03:29:06;8.30;;;7.50;;
20000;SDS011;10161;41.188;-8.642;2022-08-01T03:31:37;12.70;;;9.10;;
20000;SDS011;10161;41.188;-8.642;2022-08-01T03:34:07;9.20;;;8.30;;
20000;SDS011;10161;41.188;-8.642;2022-08-01T03:36:36;10.40;;;8.90;;
20000;SDS011;10161;41.188;-8.642;2022-08-01T03:39:09;8.80;;;7.60;;
20000;SDS011;10161;41.188;-8.642;2022-08-01T03:41:39;8.50;;;7.57;;
20000;SDS011;10161;41.188;-8.642;2022-08-01T03:44:10;9.37;;;8.20;;
20000;SDS011;10161;41.188;-8.642;2022-08-01T03:46:40;8.80;;;7.60;;
20000;SDS011;10161;41.188;-8.642;2022-08-01T03:49:10;8.63;;;7.70;;
20000;SDS011;10161;41.188;-8.642;2022-08-01T03:51:39;8.60;;;7.10;;
20000;SDS011;10161;41.188;-8.642;2022-08-01T03:54:07;9.60;;;8.70;;
20000;SDS011;10161;41.188;-8.642;2022-08-01T03:56:36;7.87;;;7.17;;
20000;SDS011;10161;41.188;-8.642;2022-08-01T03:59:05;8.90;;;8.00;;
20000;SDS011;10161;41.188;-8.642;2022-08-01T04:01:32;8.27;;;7.43;;
20000;SDS011;10161;41.188;-8.642;2022-08-01T04:03:59;8.47;;;7.57;;
20000;SDS011;10161;41.188;-8.642;2022-08-01T04:09:50;8.83;;;7.93;;
20000;SDS011;10161;41.188;-8.642;2022-08-01T04:12:17;10.00;;;9.10;;
20000;SDS011;10161;41.188;-8.642;2022-08-01T04:14:44;9.67;;;8.77;;
20000;SDS011;10161;41.188;-8.642;2022-08-01T04:17:11;12.57;;;9.10;;
20000;SDS011;10161;41.188;-8.642;2022-08-01T04:19:38;9.37;;;8.57;;
20000;SDS011;10161;41.188;-8.642;2022-08-01T04:22:05;11.47;;;8.57;;
20000;SDS011;10161;41.188;-8.642;2022-08-01T04:24:32;9.33;;;8.43;;
20000;SDS011;10161;41.188;-8.642;2022-08-01T04:27:01;9.17;;;8.27;;
20000;SDS011;10161;41.188;-8.642;2022-08-01T04:29:31;9.03;;;8.23;;
20000;SDS011;10161;41.188;-8.642;2022-08-01T04:31:59;10.30;;;8.63;;
20000;SDS011;10161;41.188;-8.642;2022-08-01T04:34:28;9.70;;;8.80;;
20000;SDS011;10161;41.188;-8.642;2022-08-01T04:36:57;9.97;;;8.93;;
20000;SDS011;10161;41.188;-8.642;2022-08-01T04:39:26;8.90;;;8.10;;
20000;SDS011;10161;41.188;-8.642;2022-08-01T04:41:54;11.30;;;9.97;;
20000;SDS011;10161;41.188;-8.642;2022-08-01T04:44:24;11.03;;;10.03;;
20000;SDS011;10161;41.188;-8.642;2022-08-01T04:46:52;9.60;;;8.73;;
20000;SDS011;10161;41.188;-8.642;2022-08-01T04:49:21;10.40;;;9.40;;
20000;SDS011;10161;41.188;-8.642;2022-08-01T04:54:32;9.57;;;8.57;;
20000;SDS011;10161;41.188;-8.642;2022-08-01T04:57:02;10.17;;;9.17;;
20000;SDS011;10161;41.188;-8.642;2022-08-01T04:59:37;9.70;;;8.80;;
20000;SDS011;10161;41.188;-8.642;2022-08-01T05:02:06;10.03;;;9.13;;
20000;SDS011;10161;41.188;-8.642;2022-08-01T05:04:35;10.70;;;9.13;;
20000;SDS011;10161;41.188;-8.642;2022-08-01T05:10:07;11.07;;;9.80;;
20000;SDS011;10161;41.188;-8.642;2022-08-01T05:12:34;9.73;;;8.83;;
20000;SDS011;10161;41.188;-8.642;2022-08-01T05:17:48;10.13;;;9.13;;
20000;SDS011;10161;41.188;-8.642;2022-08-01T05:20:15;10.30;;;9.37;;
20000;SDS011;10161;41.188;-8.642;2022-08-01T05:25:30;10.20;;;9.10;;
20000;SDS011;10161;41.188;-8.642;2022-08-01T05:27:58;10.43;;;9.50;;
20000;SDS011;10161;41.188;-8.642;2022-08-01T05:30:26;10.13;;;8.93;;
20000;SDS011;10161;41.188;-8.642;2022-08-01T05:32:54;9.63;;;8.67;;
20000;SDS011;10161;41.188;-8.642;2022-08-01T05:35:21;10.60;;;9.00;;
20000;SDS011;10161;41.188;-8.642;2022-08-01T05:37:47;9.77;;;8.77;;
20000;SDS011;10161;41.188;-8.642;2022-08-01T05:40:14;9.77;;;8.87;;
20000;SDS011;10161;41.188;-8.642;2022-08-01T05:42:41;9.53;;;8.73;;
20000;SDS011;10161;41.188;-8.642;2022-08-01T05:45:09;10.30;;;9.40;;
20000;SDS011;10161;41.188;-8.642;2022-08-01T05:47:38;10.00;;;9.00;;
20000;SDS011;10161;41.188;-8.642;2022-08-01T05:50:05;10.80;;;9.80;;
20000;SDS011;10161;41.188;-8.642;2022-08-01T05:52:32;11.20;;;10.00;;
20000;SDS011;10161;41.188;-8.642;2022-08-01T05:55:01;12.83;;;11.30;;
20000;SDS011;10161;41.188;-8.642;2022-08-01T05:57:28;11.50;;;10.37;;
20000;SDS011;10161;41.188;-8.642;2022-08-01T05:59:55;11.23;;;10.13;;
20000;SDS011;10161;41.188;-8.642;2022-08-01T06:02:22;19.10;;;9.77;;
20000;SDS011;10161;41.188;-8.642;2022-08-01T06:04:51;25.60;;;11.10;;
20000;SDS011;10161;41.188;-8.642;2022-08-01T06:07:18;11.53;;;10.30;;
20000;SDS011;10161;41.188;-8.642;2022-08-01T06:09:45;20.17;;;10.87;;
20000;SDS011;10161;41.188;-8.642;2022-08-01T06:12:12;12.60;;;9.47;;
20000;SDS011;10161;41.188;-8.642;2022-08-01T06:14:39;15.80;;;10.13;;
20000;SDS011;10161;41.188;-8.642;2022-08-01T06:17:06;17.23;;;10.63;;
20000;SDS011;10161;41.188;-8.642;2022-08-01T06:19:32;30.53;;;11.90;;
20000;SDS011;10161;41.188;-8.642;2022-08-01T06:22:01;19.33;;;10.07;;
20000;SDS011;10161;41.188;-8.642;2022-08-01T06:24:38;13.87;;;10.07;;
20000;SDS011;10161;41.188;-8.642;2022-08-01T06:27:05;18.60;;;10.00;;
20000;SDS011;10161;41.188;-8.642;2022-08-01T06:29:32;16.73;;;12.20;;
20000;SDS011;10161;41.188;-8.642;2022-08-01T06:35:21;21.40;;;10.37;;
20000;SDS011;10161;41.188;-8.642;2022-08-01T06:37:50;23.10;;;10.10;;
20000;SDS011;10161;41.188;-8.642;2022-08-01T06:40:17;31.73;;;9.20;;
20000;SDS011;10161;41.188;-8.642;2022-08-01T06:42:44;32.40;;;10.07;;
20000;SDS011;10161;41.188;-8.642;2022-08-01T06:45:12;18.60;;;7.93;;
20000;SDS011;10161;41.188;-8.642;2022-08-01T06:47:40;26.57;;;9.47;;
20000;SDS011;10161;41.188;-8.642;2022-08-01T06:50:08;21.67;;;8.53;;
20000;SDS011;10161;41.188;-8.642;2022-08-01T06:52:36;14.27;;;7.00;;
20000;SDS011;10161;41.188;-8.642;2022-08-01T06:55:05;17.20;;;7.00;;
20000;SDS011;10161;41.188;-8.642;2022-08-01T06:57:32;17.70;;;7.47;;
20000;SDS011;10161;41.188;-8.642;2022-08-01T07:00:06;21.23;;;6.73;;
20000;SDS011;10161;41.188;-8.642;2022-08-01T07:02:36;19.07;;;7.40;;
20000;SDS011;10161;41.188;-8.642;2022-08-01T07:05:03;23.17;;;8.10;;
20000;SDS011;10161;41.188;-8.642;2022-08-01T07:07:31;19.70;;;8.63;;
20000;SDS011;10161;41.188;-8.642;2022-08-01T07:09:58;13.53;;;8.40;;
20000;SDS011;10161;41.188;-8.642;2022-08-01T07:12:27;18.87;;;8.97;;
20000;SDS011;10161;41.188;-8.642;2022-08-01T07:14:54;14.13;;;8.53;;
20000;SDS011;10161;41.188;-8.642;2022-08-01T07:17:20;10.70;;;8.70;;
20000;SDS011;10161;41.188;-8.642;2022-08-01T07:19:47;12.80;;;8.00;;
20000;SDS011;10161;41.188;-8.642;2022-08-01T07:22:14;12.00;;;8.90;;
20000;SDS011;10161;41.188;-8.642;2022-08-01T07:24:42;12.70;;;8.70;;
20000;SDS011;10161;41.188;-8.642;2022-08-01T07:27:09;9.53;;;7.17;;
20000;SDS011;10161;41.188;-8.642;2022-08-01T07:29:37;9.20;;;6.90;;
20000;SDS011;10161;41.188;-8.642;2022-08-01T07:32:04;10.93;;;8.70;;
20000;SDS011;10161;41.188;-8.642;2022-08-01T07:34:32;10.03;;;8.77;;
20000;SDS011;10161;41.188;-8.642;2022-08-01T07:36:58;11.20;;;8.80;;
20000;SDS011;10161;41.188;-8.642;2022-08-01T07:39:25;12.70;;;9.53;;
20000;SDS011;10161;41.188;-8.642;2022-08-01T07:41:52;11.13;;;9.50;;
20000;SDS011;10161;41.188;-8.642;2022-08-01T07:44:19;11.40;;;10.13;;
20000;SDS011;10161;41.188;-8.642;2022-08-01T07:46:48;15.37;;;10.27;;
20000;SDS011;10161;41.188;-8.642;2022-08-01T07:49:14;11.63;;;10.43;;
20000;SDS011;10161;41.188;-8.642;2022-08-01T07:51:41;13.90;;;11.53;;
20000;SDS011;10161;41.188;-8.642;2022-08-01T07:54:08;14.60;;;12.03;;
20000;SDS011;10161;41.188;-8.642;2022-08-01T07:56:35;16.03;;;11.63;;
20000;SDS011;10161;41.188;-8.642;2022-08-01T07:59:02;13.50;;;10.50;;
20000;SDS011;10161;41.188;-8.642;2022-08-01T08:01:29;14.33;;;9.87;;
20000;SDS011;10161;41.188;-8.642;2022-08-01T08:03:58;13.07;;;9.50;;
20000;SDS011;10161;41.188;-8.642;2022-08-01T08:06:24;15.60;;;11.27;;
20000;SDS011;10161;41.188;-8.642;2022-08-01T08:08:51;14.63;;;11.60;;
20000;SDS011;10161;41.188;-8.642;2022-08-01T08:11:19;15.13;;;13.43;;
20000;SDS011;10161;41.188;-8.642;2022-08-01T08:13:46;14.50;;;12.23;;
20000;SDS011;10161;41.188;-8.642;2022-08-01T08:16:13;12.40;;;11.10;;
20000;SDS011;10161;41.188;-8.642;2022-08-01T08:18:40;18.67;;;12.70;;
20000;SDS011;10161;41.188;-8.642;2022-08-01T08:21:09;19.40;;;13.33;;
20000;SDS011;10161;41.188;-8.642;2022-08-01T08:23:35;19.77;;;12.50;;
20000;SDS011;10161;41.188;-8.642;2022-08-01T08:26:20;13.10;;;10.33;;
20000;SDS011;10161;41.188;-8.642;2022-08-01T08:28:48;19.30;;;12.70;;
20000;SDS011;10161;41.188;-8.642;2022-08-01T08:31:15;13.43;;;11.60;;
20000;SDS011;10161;41.188;-8.642;2022-08-01T08:33:42;18.37;;;13.50;;
20000;SDS011;10161;41.188;-8.642;2022-08-01T08:36:10;15.63;;;12.03;;
20000;SDS011;10161;41.188;-8.642;2022-08-01T08:38:37;15.43;;;12.13;;
20000;SDS011;10161;41.188;-8.642;2022-08-01T08:41:04;15.37;;;11.07;;
20000;SDS011;10161;41.188;-8.642;2022-08-01T08:43:31;18.17;;;10.77;;
20000;SDS011;10161;41.188;-8.642;2022-08-01T08:45:59;12.17;;;10.70;;
20000;SDS011;10161;41.188;-8.642;2022-08-01T08:48:26;16.87;;;12.97;;
20000;SDS011;10161;41.188;-8.642;2022-08-01T08:50:53;15.90;;;12.53;;
20000;SDS011;10161;41.188;-8.642;2022-08-01T08:55:53;25.73;;;16.27;;
20000;SDS011;10161;41.188;-8.642;2022-08-01T08:58:26;17.03;;;11.60;;
20000;SDS011;10161;41.188;-8.642;2022-08-01T09:00:54;12.40;;;9.83;;
20000;SDS011;10161;41.188;-8.642;2022-08-01T09:03:21;17.63;;;10.00;;
20000;SDS011;10161;41.188;-8.642;2022-08-01T09:05:48;20.40;;;12.60;;
20000;SDS011;10161;41.188;-8.642;2022-08-01T09:08:15;19.97;;;11.47;;
20000;SDS011;10161;41.188;-8.642;2022-08-01T09:10:43;15.17;;;10.40;;
20000;SDS011;10161;41.188;-8.642;2022-08-01T09:13:10;15.93;;;10.20;;
20000;SDS011;10161;41.188;-8.642;2022-08-01T09:15:42;19.23;;;12.40;;
20000;SDS011;10161;41.188;-8.642;2022-08-01T09:18:26;16.90;;;10.87;;
20000;SDS011;10161;41.188;-8.642;2022-08-01T09:21:07;13.60;;;11.60;;
20000;SDS011;10161;41.188;-8.642;2022-08-01T09:23:41;22.23;;;12.60;;
20000;SDS011;10161;41.188;-8.642;2022-08-01T09:26:11;15.83;;;11.83;;
20000;SDS011;10161;41.188;-8.642;2022-08-01T09:28:38;19.90;;;13.30;;
20000;SDS011;10161;41.188;-8.642;2022-08-01T09:31:07;22.20;;;14.37;;
20000;SDS011;10161;41.188;-8.642;2022-08-01T09:33:51;17.00;;;13.10;;
20000;SDS011;10161;41.188;-8.642;2022-08-01T09:36:19;16.53;;;13.10;;
20000;SDS011;10161;41.188;-8.642;2022-08-01T09:38:47;18.27;;;12.60;;
20000;SDS011;10161;41.188;-8.642;2022-08-01T09:41:16;13.73;;;10.97;;
20000;SDS011;10161;41.188;-8.642;2022-08-01T09:43:47;20.27;;;13.83;;
20000;SDS011;10161;41.188;-8.642;2022-08-01T09:46:17;16.50;;;12.73;;
20000;SDS011;10161;41.188;-8.642;2022-08-01T09:48:56;15.13;;;12.00;;
20000;SDS011;10161;41.188;-8.642;2022-08-01T09:51:28;17.03;;;13.37;;
20000;SDS011;10161;41.188;-8.642;2022-08-01T09:53:59;13.13;;;11.47;;
20000;SDS011;10161;41.188;-8.642;2022-08-01T09:56:35;15.43;;;11.40;;
20000;SDS011;10161;41.188;-8.642;2022-08-01T09:59:03;18.67;;;12.50;;
20000;SDS011;10161;41.188;-8.642;2022-08-01T10:01:41;18.13;;;11.60;;
20000;SDS011;10161;41.188;-8.642;2022-08-01T10:04:09;14.50;;;12.00;;
20000;SDS011;10161;41.188;-8.642;2022-08-01T10:06:37;17.73;;;12.10;;
20000;SDS011;10161;41.188;-8.642;2022-08-01T10:09:05;20.10;;;11.13;;
20000;SDS011;10161;41.188;-8.642;2022-08-01T10:11:33;17.10;;;9.67;;
20000;SDS011;10161;41.188;-8.642;2022-08-01T10:14:04;17.10;;;10.20;;
20000;SDS011;10161;41.188;-8.642;2022-08-01T10:16:32;14.03;;;10.40;;
20000;SDS011;10161;41.188;-8.642;2022-08-01T10:19:01;14.13;;;9.80;;
20000;SDS011;10161;41.188;-8.642;2022-08-01T10:21:28;14.13;;;10.67;;
20000;SDS011;10161;41.188;-8.642;2022-08-01T10:23:59;11.17;;;9.23;;
20000;SDS011;10161;41.188;-8.642;2022-08-01T10:26:29;15.60;;;9.40;;
20000;SDS011;10161;41.188;-8.642;2022-08-01T10:29:00;19.03;;;10.83;;
20000;SDS011;10161;41.188;-8.642;2022-08-01T10:31:27;14.20;;;9.40;;
20000;SDS011;10161;41.188;-8.642;2022-08-01T10:33:58;19.60;;;10.33;;
20000;SDS011;10161;41.188;-8.642;2022-08-01T10:36:25;18.50;;;10.07;;
20000;SDS011;10161;41.188;-8.642;2022-08-01T10:38:53;19.10;;;11.10;;
20000;SDS011;10161;41.188;-8.642;2022-08-01T10:41:20;16.27;;;11.73;;
20000;SDS011;10161;41.188;-8.642;2022-08-01T10:43:47;23.57;;;11.93;;
20000;SDS011;10161;41.188;-8.642;2022-08-01T10:46:15;21.67;;;11.83;;
20000;SDS011;10161;41.188;-8.642;2022-08-01T10:48:47;21.23;;;12.63;;
20000;SDS011;10161;41.188;-8.642;2022-08-01T10:51:20;25.63;;;11.47;;
20000;SDS011;10161;41.188;-8.642;2022-08-01T10:53:48;22.13;;;13.17;;
20000;SDS011;10161;41.188;-8.642;2022-08-01T10:56:16;19.00;;;11.37;;
20000;SDS011;10161;41.188;-8.642;2022-08-01T10:58:44;17.60;;;10.53;;
20000;SDS011;10161;41.188;-8.642;2022-08-01T11:01:24;17.10;;;11.33;;
20000;SDS011;10161;41.188;-8.642;2022-08-01T11:06:41;14.30;;;9.90;;
20000;SDS011;10161;41.188;-8.642;2022-08-01T11:09:23;20.10;;;10.67;;
20000;SDS011;10161;41.188;-8.642;2022-08-01T11:12:01;10.50;;;8.20;;
20000;SDS011;10161;41.188;-8.642;2022-08-01T11:14:33;19.70;;;9.87;;
20000;SDS011;10161;41.188;-8.642;2022-08-01T11:20:04;22.07;;;10.83;;
20000;SDS011;10161;41.188;-8.642;2022-08-01T11:22:35;21.60;;;11.40;;
20000;SDS011;10161;41.188;-8.642;2022-08-01T11:28:46;17.77;;;11.17;;
20000;SDS011;10161;41.188;-8.642;2022-08-01T11:31:42;14.70;;;9.93;;
20000;SDS011;10161;41.188;-8.642;2022-08-01T11:34:09;17.63;;;9.63;;
20000;SDS011;10161;41.188;-8.642;2022-08-01T11:36:38;16.17;;;8.93;;
20000;SDS011;10161;41.188;-8.642;2022-08-01T11:39:15;17.90;;;8.93;;
20000;SDS011;10161;41.188;-8.642;2022-08-01T11:41:43;15.57;;;9.10;;
20000;SDS011;10161;41.188;-8.642;2022-08-01T11:44:13;21.13;;;9.27;;
20000;SDS011;10161;41.188;-8.642;2022-08-01T11:46:48;16.60;;;8.63;;
20000;SDS011;10161;41.188;-8.642;2022-08-01T11:49:23;20.10;;;8.50;;
20000;SDS011;10161;41.188;-8.642;2022-08-01T11:51:56;13.57;;;7.43;;
20000;SDS011;10161;41.188;-8.642;2022-08-01T11:54:25;19.00;;;7.60;;
20000;SDS011;10161;41.188;-8.642;2022-08-01T11:56:54;15.67;;;8.23;;
20000;SDS011;10161;41.188;-8.642;2022-08-01T11:59:24;16.87;;;7.43;;
20000;SDS011;10161;41.188;-8.642;2022-08-01T12:01:51;17.60;;;7.73;;
20000;SDS011;10161;41.188;-8.642;2022-08-01T12:04:18;18.43;;;8.23;;
20000;SDS011;10161;41.188;-8.642;2022-08-01T12:06:45;13.43;;;8.00;;
20000;SDS011;10161;41.188;-8.642;2022-08-01T12:09:20;14.30;;;7.67;;
20000;SDS011;10161;41.188;-8.642;2022-08-01T12:11:48;19.23;;;8.30;;
20000;SDS011;10161;41.188;-8.642;2022-08-01T12:14:16;18.93;;;8.03;;
20000;SDS011;10161;41.188;-8.642;2022-08-01T12:16:51;23.63;;;7.20;;
20000;SDS011;10161;41.188;-8.642;2022-08-01T12:19:19;17.20;;;8.33;;
20000;SDS011;10161;41.188;-8.642;2022-08-01T12:22:05;17.63;;;7.80;;
20000;SDS011;10161;41.188;-8.642;2022-08-01T12:24:39;16.20;;;7.10;;
20000;SDS011;10161;41.188;-8.642;2022-08-01T12:27:07;19.17;;;8.03;;
20000;SDS011;10161;41.188;-8.642;2022-08-01T12:29:35;21.37;;;7.60;;
20000;SDS011;10161;41.188;-8.642;2022-08-01T12:32:13;16.40;;;7.53;;
20000;SDS011;10161;41.188;-8.642;2022-08-01T12:34:48;15.60;;;7.30;;
20000;SDS011;10161;41.188;-8.642;2022-08-01T12:37:15;21.93;;;7.90;;
20000;SDS011;10161;41.188;-8.642;2022-08-01T12:39:42;15.50;;;7.50;;
20000;SDS011;10161;41.188;-8.642;2022-08-01T12:42:10;15.50;;;7.03;;
20000;SDS011;10161;41.188;-8.642;2022-08-01T12:44:38;16.43;;;7.20;;
20000;SDS011;10161;41.188;-8.642;2022-08-01T12:47:07;15.57;;;6.50;;
20000;SDS011;10161;41.188;-8.642;2022-08-01T12:49:34;15.13;;;6.50;;
20000;SDS011;10161;41.188;-8.642;2022-08-01T12:52:02;16.40;;;7.93;;
20000;SDS011;10161;41.188;-8.642;2022-08-01T12:54:30;16.07;;;7.80;;
20000;SDS011;10161;41.188;-8.642;2022-08-01T12:56:57;17.37;;;7.60;;
20000;SDS011;10161;41.188;-8.642;2022-08-01T12:59:27;10.30;;;7.23;;
20000;SDS011;10161;41.188;-8.642;2022-08-01T13:01:54;11.73;;;6.20;;
20000;SDS011;10161;41.188;-8.642;2022-08-01T13:04:23;12.93;;;7.20;;
20000;SDS011;10161;41.188;-8.642;2022-08-01T13:06:52;10.97;;;6.17;;
20000;SDS011;10161;41.188;-8.642;2022-08-01T13:09:20;12.43;;;6.20;;
20000;SDS011;10161;41.188;-8.642;2022-08-01T13:11:47;19.93;;;6.67;;
20000;SDS011;10161;41.188;-8.642;2022-08-01T13:14:29;15.73;;;6.60;;
20000;SDS011;10161;41.188;-8.642;2022-08-01T13:16:56;14.27;;;6.17;;
20000;SDS011;10161;41.188;-8.642;2022-08-01T13:22:11;13.20;;;5.80;;
20000;SDS011;10161;41.188;-8.642;2022-08-01T13:24:38;17.70;;;5.70;;
20000;SDS011;10161;41.188;-8.642;2022-08-01T13:27:05;17.10;;;6.17;;
20000;SDS011;10161;41.188;-8.642;2022-08-01T13:29:43;17.23;;;6.30;;
20000;SDS011;10161;41.188;-8.642;2022-08-01T13:32:14;17.80;;;7.33;;
20000;SDS011;10161;41.188;-8.642;2022-08-01T13:34:44;17.80;;;6.70;;
20000;SDS011;10161;41.188;-8.642;2022-08-01T13:37:14;23.70;;;6.70;;
20000;SDS011;10161;41.188;-8.642;2022-08-01T13:39:47;22.10;;;6.80;;
20000;SDS011;10161;41.188;-8.642;2022-08-01T13:42:16;17.53;;;6.67;;
20000;SDS011;10161;41.188;-8.642;2022-08-01T13:44:43;16.40;;;6.17;;
20000;SDS011;10161;41.188;-8.642;2022-08-01T13:47:10;16.47;;;6.53;;
20000;SDS011;10161;41.188;-8.642;2022-08-01T13:49:37;17.23;;;6.50;;
20000;SDS011;10161;41.188;-8.642;2022-08-01T13:52:06;14.97;;;6.20;;
20000;SDS011;10161;41.188;-8.642;2022-08-01T13:54:33;13.53;;;6.20;;
20000;SDS011;10161;41.188;-8.642;2022-08-01T13:57:01;10.93;;;5.20;;
20000;SDS011;10161;41.188;-8.642;2022-08-01T13:59:28;13.40;;;6.97;;
20000;SDS011;10161;41.188;-8.642;2022-08-01T14:01:56;15.83;;;6.40;;
20000;SDS011;10161;41.188;-8.642;2022-08-01T14:04:23;15.53;;;6.80;;
20000;SDS011;10161;41.188;-8.642;2022-08-01T14:06:50;15.07;;;6.67;;
20000;SDS011;10161;41.188;-8.642;2022-08-01T14:09:20;15.70;;;6.70;;
20000;SDS011;10161;41.188;-8.642;2022-08-01T14:11:48;17.70;;;9.03;;
20000;SDS011;10161;41.188;-8.642;2022-08-01T14:14:15;13.83;;;7.97;;
20000;SDS011;10161;41.188;-8.642;2022-08-01T14:16:42;15.20;;;6.83;;
20000;SDS011;10161;41.188;-8.642;2022-08-01T14:19:10;17.70;;;7.57;;
20000;SDS011;10161;41.188;-8.642;2022-08-01T14:21:36;14.17;;;7.63;;
20000;SDS011;10161;41.188;-8.642;2022-08-01T14:24:05;22.67;;;8.77;;
20000;SDS011;10161;41.188;-8.642;2022-08-01T14:26:34;17.10;;;8.10;;
20000;SDS011;10161;41.188;-8.642;2022-08-01T14:29:01;19.90;;;9.00;;
20000;SDS011;10161;41.188;-8.642;2022-08-01T14:31:28;19.37;;;8.40;;
20000;SDS011;10161;41.188;-8.642;2022-08-01T14:33:55;14.47;;;8.13;;
20000;SDS011;10161;41.188;-8.642;2022-08-01T14:36:22;18.80;;;7.33;;
20000;SDS011;10161;41.188;-8.642;2022-08-01T14:38:49;24.60;;;9.30;;
20000;SDS011;10161;41.188;-8.642;2022-08-01T14:41:16;22.20;;;9.43;;
20000;SDS011;10161;41.188;-8.642;2022-08-01T14:43:44;17.87;;;8.60;;
20000;SDS011;10161;41.188;-8.642;2022-08-01T14:46:15;20.83;;;10.73;;
20000;SDS011;10161;41.188;-8.642;2022-08-01T14:48:42;14.90;;;10.23;;
20000;SDS011;10161;41.188;-8.642;2022-08-01T14:51:09;23.13;;;10.50;;
20000;SDS011;10161;41.188;-8.642;2022-08-01T14:53:36;18.20;;;10.90;;
20000;SDS011;10161;41.188;-8.642;2022-08-01T14:56:04;13.50;;;10.10;;
20000;SDS011;10161;41.188;-8.642;2022-08-01T14:58:32;20.57;;;9.53;;
20000;SDS011;10161;41.188;-8.642;2022-08-01T15:01:00;18.07;;;10.73;;
20000;SDS011;10161;41.188;-8.642;2022-08-01T15:03:29;24.07;;;11.57;;
20000;SDS011;10161;41.188;-8.642;2022-08-01T15:05:56;22.20;;;10.87;;
20000;SDS011;10161;41.188;-8.642;2022-08-01T15:08:23;15.57;;;9.77;;
20000;SDS011;10161;41.188;-8.642;2022-08-01T15:10:51;21.23;;;9.53;;
20000;SDS011;10161;41.188;-8.642;2022-08-01T15:13:18;15.83;;;9.50;;
20000;SDS011;10161;41.188;-8.642;2022-08-01T15:15:45;15.40;;;9.20;;
20000;SDS011;10161;41.188;-8.642;2022-08-01T15:18:14;19.63;;;9.23;;